sensor_id;sensor_type;location;lat;lon;timestamp;temperature;humidity
39493;DHT22;25176;51.060;3.720;2023-11-21T00:00:54;11.60;99.90
39493;DHT22;25176;51.060;3.720;2023-11-21T00:03:20;11.50;99.90
39493;DHT22;25176;51.060;3.720;2023-11-21T00:05:45;11.60;99.90
39493;DHT22;25176;51.060;3.720;2023-11-21T00:08:11;11.60;99.90
39493;DHT22;25176;51.060;3.720;2023-11-21T00:10:37;11.70;99.90
39493;DHT22;25176;51.060;3.720;2023-11-21T00:13:03;11.80;99.90
39493;DHT22;25176;51.060;3.720;2023-11-21T00:15:29;11.80;99.90
39493;DHT22;25176;51.060;3.720;2023-11-21T00:17:54;11.70;99.90
39493;DHT22;25176;51.060;3.720;2023-11-21T00:20:20;11.80;99.90
39493;DHT22;25176;51.060;3.720;2023-11-21T00:22:46;11.80;99.90
39493;DHT22;25176;51.060;3.720;2023-11-21T00:25:12;11.70;99.90
39493;DHT22;25176;51.060;3.720;2023-11-21T00:27:39;11.80;99.90
39493;DHT22;25176;51.060;3.720;2023-11-21T00:30:05;11.80;99.90
39493;DHT22;25176;51.060;3.720;2023-11-21T00:32:31;11.70;99.90
39493;DHT22;25176;51.060;3.720;2023-11-21T00:34:56;11.60;99.90
39493;DHT22;25176;51.060;3.720;2023-11-21T00:37:22;11.60;99.90
39493;DHT22;25176;51.060;3.720;2023-11-21T00:39:49;11.60;99.90
39493;DHT22;25176;51.060;3.720;2023-11-21T00:42:14;11.60;99.90
39493;DHT22;25176;51.060;3.720;2023-11-21T00:44:40;11.60;99.90
39493;DHT22;25176;51.060;3.720;2023-11-21T00:47:05;11.60;99.90
39493;DHT22;25176;51.060;3.720;2023-11-21T00:49:31;11.60;99.90
39493;DHT22;25176;51.060;3.720;2023-11-21T00:51:57;11.60;99.90
39493;DHT22;25176;51.060;3.720;2023-11-21T00:54:23;11.60;99.90
39493;DHT22;25176;51.060;3.720;2023-11-21T00:56:48;11.70;99.90
39493;DHT22;25176;51.060;3.720;2023-11-21T00:59:14;11.60;99.90
39493;DHT22;25176;51.060;3.720;2023-11-21T01:01:39;11.70;99.90
39493;DHT22;25176;51.060;3.720;2023-11-21T01:04:05;11.70;99.90
39493;DHT22;25176;51.060;3.720;2023-11-21T01:06:32;11.70;99.90
39493;DHT22;25176;51.060;3.720;2023-11-21T01:08:57;11.70;99.90
39493;DHT22;25176;51.060;3.720;2023-11-21T01:11:23;11.70;99.90
39493;DHT22;25176;51.060;3.720;2023-11-21T01:13:48;11.70;99.90
39493;DHT22;25176;51.060;3.720;2023-11-21T01:16:14;11.60;99.90
39493;DHT22;25176;51.060;3.720;2023-11-21T01:18:39;11.70;99.90
39493;DHT22;25176;51.060;3.720;2023-11-21T01:21:05;11.80;99.90
39493;DHT22;25176;51.060;3.720;2023-11-21T01:23:31;11.70;99.90
39493;DHT22;25176;51.060;3.720;2023-11-21T01:25:56;11.70;99.90
39493;DHT22;25176;51.060;3.720;2023-11-21T01:28:22;11.70;99.90
39493;DHT22;25176;51.060;3.720;2023-11-21T01:30:48;11.70;99.90
39493;DHT22;25176;51.060;3.720;2023-11-21T01:33:13;11.60;99.90
39493;DHT22;25176;51.060;3.720;2023-11-21T01:35:41;11.70;99.90
39493;DHT22;25176;51.060;3.720;2023-11-21T01:38:06;11.70;99.90
39493;DHT22;25176;51.060;3.720;2023-11-21T01:40:33;11.80;99.90
39493;DHT22;25176;51.060;3.720;2023-11-21T01:42:59;11.90;99.90
39493;DHT22;25176;51.060;3.720;2023-11-21T01:45:24;11.90;99.90
39493;DHT22;25176;51.060;3.720;2023-11-21T01:47:50;11.90;99.90
39493;DHT22;25176;51.060;3.720;2023-11-21T01:50:16;11.90;99.90
39493;DHT22;25176;51.060;3.720;2023-11-21T01:52:43;11.80;99.90
39493;DHT22;25176;51.060;3.720;2023-11-21T01:55:09;11.90;99.90
39493;DHT22;25176;51.060;3.720;2023-11-21T01:57:36;11.90;99.90
39493;DHT22;25176;51.060;3.720;2023-11-21T02:00:03;11.90;99.90
39493;DHT22;25176;51.060;3.720;2023-11-21T02:02:49;11.90;99.90
39493;DHT22;25176;51.060;3.720;2023-11-21T02:05:17;12.00;99.90
39493;DHT22;25176;51.060;3.720;2023-11-21T02:07:46;11.90;99.90
39493;DHT22;25176;51.060;3.720;2023-11-21T02:10:14;11.90;99.90
39493;DHT22;25176;51.060;3.720;2023-11-21T02:12:40;11.80;99.90
39493;DHT22;25176;51.060;3.720;2023-11-21T02:15:06;11.80;99.90
39493;DHT22;25176;51.060;3.720;2023-11-21T02:17:35;11.70;99.90
39493;DHT22;25176;51.060;3.720;2023-11-21T02:20:01;11.80;99.90
39493;DHT22;25176;51.060;3.720;2023-11-21T02:22:28;11.90;99.90
39493;DHT22;25176;51.060;3.720;2023-11-21T02:24:56;11.90;99.90
39493;DHT22;25176;51.060;3.720;2023-11-21T02:27:23;11.90;99.90
39493;DHT22;25176;51.060;3.720;2023-11-21T02:29:49;11.90;99.90
39493;DHT22;25176;51.060;3.720;2023-11-21T02:32:14;12.00;99.90
39493;DHT22;25176;51.060;3.720;2023-11-21T02:34:42;11.90;99.90
39493;DHT22;25176;51.060;3.720;2023-11-21T02:37:08;11.80;99.90
39493;DHT22;25176;51.060;3.720;2023-11-21T02:39:35;11.90;99.90
39493;DHT22;25176;51.060;3.720;2023-11-21T02:42:01;11.90;99.90
39493;DHT22;25176;51.060;3.720;2023-11-21T02:44:27;11.80;99.90
39493;DHT22;25176;51.060;3.720;2023-11-21T02:46:52;11.80;99.90
39493;DHT22;25176;51.060;3.720;2023-11-21T02:49:18;11.80;99.90
39493;DHT22;25176;51.060;3.720;2023-11-21T02:51:43;11.90;99.90
39493;DHT22;25176;51.060;3.720;2023-11-21T02:54:09;12.00;99.90
39493;DHT22;25176;51.060;3.720;2023-11-21T02:56:34;11.90;99.90
39493;DHT22;25176;51.060;3.720;2023-11-21T02:59:00;11.80;99.90
39493;DHT22;25176;51.060;3.720;2023-11-21T03:01:26;11.70;99.90
39493;DHT22;25176;51.060;3.720;2023-11-21T03:03:52;11.70;99.90
39493;DHT22;25176;51.060;3.720;2023-11-21T03:06:18;11.70;99.90
39493;DHT22;25176;51.060;3.720;2023-11-21T03:08:44;11.70;99.90
39493;DHT22;25176;51.060;3.720;2023-11-21T03:11:09;11.80;99.90
39493;DHT22;25176;51.060;3.720;2023-11-21T03:13:35;11.80;99.90
39493;DHT22;25176;51.060;3.720;2023-11-21T03:16:00;11.70;99.90
39493;DHT22;25176;51.060;3.720;2023-11-21T03:18:26;11.80;99.90
39493;DHT22;25176;51.060;3.720;2023-11-21T03:20:54;11.90;99.90
39493;DHT22;25176;51.060;3.720;2023-11-21T03:23:20;11.90;99.90
39493;DHT22;25176;51.060;3.720;2023-11-21T03:25:45;12.00;99.90
39493;DHT22;25176;51.060;3.720;2023-11-21T03:28:11;12.10;99.90
39493;DHT22;25176;51.060;3.720;2023-11-21T03:30:36;12.00;99.90
39493;DHT22;25176;51.060;3.720;2023-11-21T03:33:02;12.00;99.90
39493;DHT22;25176;51.060;3.720;2023-11-21T03:35:27;12.10;99.90
39493;DHT22;25176;51.060;3.720;2023-11-21T03:37:53;12.10;99.90
39493;DHT22;25176;51.060;3.720;2023-11-21T03:40:19;12.20;99.90
39493;DHT22;25176;51.060;3.720;2023-11-21T03:42:45;12.00;99.90
39493;DHT22;25176;51.060;3.720;2023-11-21T03:45:11;12.00;99.90
39493;DHT22;25176;51.060;3.720;2023-11-21T03:47:37;12.00;99.90
39493;DHT22;25176;51.060;3.720;2023-11-21T03:50:03;12.00;99.90
39493;DHT22;25176;51.060;3.720;2023-11-21T03:52:28;12.00;99.90
39493;DHT22;25176;51.060;3.720;2023-11-21T03:54:54;12.00;99.90
39493;DHT22;25176;51.060;3.720;2023-11-21T03:57:20;12.00;99.90
39493;DHT22;25176;51.060;3.720;2023-11-21T03:59:46;12.00;99.90
39493;DHT22;25176;51.060;3.720;2023-11-21T04:02:11;12.00;99.90
39493;DHT22;25176;51.060;3.720;2023-11-21T04:04:37;12.00;99.90
39493;DHT22;25176;51.060;3.720;2023-11-21T04:07:02;12.00;99.90
39493;DHT22;25176;51.060;3.720;2023-11-21T04:09:28;12.00;99.90
39493;DHT22;25176;51.060;3.720;2023-11-21T04:11:53;12.10;99.90
39493;DHT22;25176;51.060;3.720;2023-11-21T04:14:19;12.10;99.90
39493;DHT22;25176;51.060;3.720;2023-11-21T04:16:45;12.20;99.90
39493;DHT22;25176;51.060;3.720;2023-11-21T04:19:10;12.20;99.90
39493;DHT22;25176;51.060;3.720;2023-11-21T04:21:39;12.20;99.90
39493;DHT22;25176;51.060;3.720;2023-11-21T04:24:04;12.20;99.90
39493;DHT22;25176;51.060;3.720;2023-11-21T04:26:30;12.20;99.90
39493;DHT22;25176;51.060;3.720;2023-11-21T04:28:56;12.10;99.90
39493;DHT22;25176;51.060;3.720;2023-11-21T04:31:21;12.10;99.90
39493;DHT22;25176;51.060;3.720;2023-11-21T04:33:46;12.10;99.90
39493;DHT22;25176;51.060;3.720;2023-11-21T04:36:12;12.10;99.90
39493;DHT22;25176;51.060;3.720;2023-11-21T04:38:37;12.20;99.90
39493;DHT22;25176;51.060;3.720;2023-11-21T04:41:03;12.20;99.90
39493;DHT22;25176;51.060;3.720;2023-11-21T04:43:28;12.20;99.90
39493;DHT22;25176;51.060;3.720;2023-11-21T04:45:54;12.30;99.90
39493;DHT22;25176;51.060;3.720;2023-11-21T04:48:20;12.40;99.90
39493;DHT22;25176;51.060;3.720;2023-11-21T04:50:45;12.40;99.90
39493;DHT22;25176;51.060;3.720;2023-11-21T04:53:11;12.40;99.90
39493;DHT22;25176;51.060;3.720;2023-11-21T04:55:39;12.40;99.90
39493;DHT22;25176;51.060;3.720;2023-11-21T04:58:04;12.40;99.90
39493;DHT22;25176;51.060;3.720;2023-11-21T05:00:30;12.40;99.90
39493;DHT22;25176;51.060;3.720;2023-11-21T05:02:55;12.40;99.90
39493;DHT22;25176;51.060;3.720;2023-11-21T05:05:21;12.30;99.90
39493;DHT22;25176;51.060;3.720;2023-11-21T05:07:46;12.30;99.90
39493;DHT22;25176;51.060;3.720;2023-11-21T05:10:12;12.20;99.90
39493;DHT22;25176;51.060;3.720;2023-11-21T05:12:40;12.20;99.90
39493;DHT22;25176;51.060;3.720;2023-11-21T05:15:06;12.10;99.90
39493;DHT22;25176;51.060;3.720;2023-11-21T05:17:38;12.10;99.90
39493;DHT22;25176;51.060;3.720;2023-11-21T05:20:07;12.10;99.90
39493;DHT22;25176;51.060;3.720;2023-11-21T05:22:34;12.20;99.90
39493;DHT22;25176;51.060;3.720;2023-11-21T05:25:01;12.20;99.90
39493;DHT22;25176;51.060;3.720;2023-11-21T05:27:26;12.20;99.90
39493;DHT22;25176;51.060;3.720;2023-11-21T05:29:52;12.30;99.90
39493;DHT22;25176;51.060;3.720;2023-11-21T05:32:17;12.30;99.90
39493;DHT22;25176;51.060;3.720;2023-11-21T05:34:43;12.30;99.90
39493;DHT22;25176;51.060;3.720;2023-11-21T05:37:08;12.30;99.90
39493;DHT22;25176;51.060;3.720;2023-11-21T05:39:34;12.40;99.90
39493;DHT22;25176;51.060;3.720;2023-11-21T05:41:59;12.40;99.90
39493;DHT22;25176;51.060;3.720;2023-11-21T05:44:25;12.30;99.90
39493;DHT22;25176;51.060;3.720;2023-11-21T05:46:50;12.30;99.90
39493;DHT22;25176;51.060;3.720;2023-11-21T05:49:16;12.20;99.90
39493;DHT22;25176;51.060;3.720;2023-11-21T05:51:41;12.20;99.90
39493;DHT22;25176;51.060;3.720;2023-11-21T05:54:07;12.10;99.90
39493;DHT22;25176;51.060;3.720;2023-11-21T05:56:33;12.20;99.90
39493;DHT22;25176;51.060;3.720;2023-11-21T05:58:59;12.30;99.90
39493;DHT22;25176;51.060;3.720;2023-11-21T06:01:25;12.30;99.90
39493;DHT22;25176;51.060;3.720;2023-11-21T06:03:53;12.30;99.90
39493;DHT22;25176;51.060;3.720;2023-11-21T06:06:19;12.30;99.90
39493;DHT22;25176;51.060;3.720;2023-11-21T06:08:45;12.30;99.90
39493;DHT22;25176;51.060;3.720;2023-11-21T06:11:10;12.30;99.90
39493;DHT22;25176;51.060;3.720;2023-11-21T06:13:37;12.30;99.90
39493;DHT22;25176;51.060;3.720;2023-11-21T06:16:03;12.30;99.90
39493;DHT22;25176;51.060;3.720;2023-11-21T06:18:29;12.30;99.90
39493;DHT22;25176;51.060;3.720;2023-11-21T06:20:55;12.30;99.90
39493;DHT22;25176;51.060;3.720;2023-11-21T06:23:20;12.30;99.90
39493;DHT22;25176;51.060;3.720;2023-11-21T06:25:46;12.30;99.90
39493;DHT22;25176;51.060;3.720;2023-11-21T06:28:11;12.10;99.90
39493;DHT22;25176;51.060;3.720;2023-11-21T06:30:37;12.10;99.90
39493;DHT22;25176;51.060;3.720;2023-11-21T06:33:03;12.00;99.90
39493;DHT22;25176;51.060;3.720;2023-11-21T06:35:28;12.00;99.90
39493;DHT22;25176;51.060;3.720;2023-11-21T06:37:55;12.10;99.90
39493;DHT22;25176;51.060;3.720;2023-11-21T06:40:21;12.10;99.90
39493;DHT22;25176;51.060;3.720;2023-11-21T06:42:46;12.10;99.90
39493;DHT22;25176;51.060;3.720;2023-11-21T06:45:12;12.20;99.90
39493;DHT22;25176;51.060;3.720;2023-11-21T06:47:38;12.20;99.90
39493;DHT22;25176;51.060;3.720;2023-11-21T06:50:05;12.20;99.90
39493;DHT22;25176;51.060;3.720;2023-11-21T06:52:32;12.20;99.90
39493;DHT22;25176;51.060;3.720;2023-11-21T06:54:57;12.10;99.90
39493;DHT22;25176;51.060;3.720;2023-11-21T06:57:23;12.10;99.90
39493;DHT22;25176;51.060;3.720;2023-11-21T06:59:49;12.10;99.90
39493;DHT22;25176;51.060;3.720;2023-11-21T07:02:16;12.00;99.90
39493;DHT22;25176;51.060;3.720;2023-11-21T07:04:45;12.10;99.90
39493;DHT22;25176;51.060;3.720;2023-11-21T07:07:11;12.30;99.90
39493;DHT22;25176;51.060;3.720;2023-11-21T07:09:37;12.10;99.90
39493;DHT22;25176;51.060;3.720;2023-11-21T07:12:03;12.20;99.90
39493;DHT22;25176;51.060;3.720;2023-11-21T07:14:33;12.10;99.90
39493;DHT22;25176;51.060;3.720;2023-11-21T07:16:59;12.00;99.90
39493;DHT22;25176;51.060;3.720;2023-11-21T07:19:25;12.00;99.90
39493;DHT22;25176;51.060;3.720;2023-11-21T07:21:50;12.00;99.90
39493;DHT22;25176;51.060;3.720;2023-11-21T07:24:16;12.10;99.90
39493;DHT22;25176;51.060;3.720;2023-11-21T07:26:42;12.10;99.90
39493;DHT22;25176;51.060;3.720;2023-11-21T07:29:08;12.10;99.90
39493;DHT22;25176;51.060;3.720;2023-11-21T07:31:33;12.10;99.90
39493;DHT22;25176;51.060;3.720;2023-11-21T07:34:02;12.20;99.90
39493;DHT22;25176;51.060;3.720;2023-11-21T07:36:30;12.20;99.90
39493;DHT22;25176;51.060;3.720;2023-11-21T07:38:55;12.30;99.90
39493;DHT22;25176;51.060;3.720;2023-11-21T07:41:23;12.30;99.90
39493;DHT22;25176;51.060;3.720;2023-11-21T07:43:49;12.40;99.90
39493;DHT22;25176;51.060;3.720;2023-11-21T07:46:15;12.40;99.90
39493;DHT22;25176;51.060;3.720;2023-11-21T07:48:41;12.40;99.90
39493;DHT22;25176;51.060;3.720;2023-11-21T07:51:11;12.50;99.90
39493;DHT22;25176;51.060;3.720;2023-11-21T07:53:38;12.40;99.90
39493;DHT22;25176;51.060;3.720;2023-11-21T07:56:05;12.40;99.90
39493;DHT22;25176;51.060;3.720;2023-11-21T07:58:31;12.30;99.90
39493;DHT22;25176;51.060;3.720;2023-11-21T08:00:59;12.40;99.90
39493;DHT22;25176;51.060;3.720;2023-11-21T08:03:24;12.50;99.90
39493;DHT22;25176;51.060;3.720;2023-11-21T08:05:52;12.60;99.90
39493;DHT22;25176;51.060;3.720;2023-11-21T08:08:17;12.60;99.90
39493;DHT22;25176;51.060;3.720;2023-11-21T08:10:44;12.70;99.90
39493;DHT22;25176;51.060;3.720;2023-11-21T08:13:19;12.60;99.90
39493;DHT22;25176;51.060;3.720;2023-11-21T08:15:45;12.60;99.90
39493;DHT22;25176;51.060;3.720;2023-11-21T08:18:12;12.40;99.90
39493;DHT22;25176;51.060;3.720;2023-11-21T08:20:40;12.50;99.90
39493;DHT22;25176;51.060;3.720;2023-11-21T08:23:06;12.50;99.90
39493;DHT22;25176;51.060;3.720;2023-11-21T08:25:31;12.50;99.90
39493;DHT22;25176;51.060;3.720;2023-11-21T08:27:57;12.60;99.90
39493;DHT22;25176;51.060;3.720;2023-11-21T08:30:23;12.60;99.90
39493;DHT22;25176;51.060;3.720;2023-11-21T08:32:49;12.70;99.90
39493;DHT22;25176;51.060;3.720;2023-11-21T08:35:16;12.80;99.90
39493;DHT22;25176;51.060;3.720;2023-11-21T08:37:41;12.90;99.90
39493;DHT22;25176;51.060;3.720;2023-11-21T08:40:07;12.90;99.90
39493;DHT22;25176;51.060;3.720;2023-11-21T08:42:35;12.90;99.90
39493;DHT22;25176;51.060;3.720;2023-11-21T08:45:00;12.80;99.90
39493;DHT22;25176;51.060;3.720;2023-11-21T08:47:26;12.70;99.90
39493;DHT22;25176;51.060;3.720;2023-11-21T08:49:52;12.70;99.90
39493;DHT22;25176;51.060;3.720;2023-11-21T08:52:18;12.80;99.90
39493;DHT22;25176;51.060;3.720;2023-11-21T08:54:44;12.60;99.90
39493;DHT22;25176;51.060;3.720;2023-11-21T08:57:10;12.50;99.90
39493;DHT22;25176;51.060;3.720;2023-11-21T08:59:36;12.50;99.90
39493;DHT22;25176;51.060;3.720;2023-11-21T09:02:07;12.50;99.90
39493;DHT22;25176;51.060;3.720;2023-11-21T09:04:33;12.30;99.90
39493;DHT22;25176;51.060;3.720;2023-11-21T09:06:59;12.30;99.90
39493;DHT22;25176;51.060;3.720;2023-11-21T09:09:28;12.20;99.90
39493;DHT22;25176;51.060;3.720;2023-11-21T09:11:55;12.20;99.90
39493;DHT22;25176;51.060;3.720;2023-11-21T09:14:20;12.20;99.90
39493;DHT22;25176;51.060;3.720;2023-11-21T09:16:55;12.20;99.90
39493;DHT22;25176;51.060;3.720;2023-11-21T09:19:22;12.40;99.90
39493;DHT22;25176;51.060;3.720;2023-11-21T09:22:08;13.00;99.90
39493;DHT22;25176;51.060;3.720;2023-11-21T09:24:33;14.30;99.90
39493;DHT22;25176;51.060;3.720;2023-11-21T09:26:59;15.90;99.90
39493;DHT22;25176;51.060;3.720;2023-11-21T09:29:25;16.20;99.90
39493;DHT22;25176;51.060;3.720;2023-11-21T09:31:51;16.60;99.90
39493;DHT22;25176;51.060;3.720;2023-11-21T09:34:17;16.30;99.90
39493;DHT22;25176;51.060;3.720;2023-11-21T09:36:45;16.30;99.90
39493;DHT22;25176;51.060;3.720;2023-11-21T09:39:11;15.90;99.90
39493;DHT22;25176;51.060;3.720;2023-11-21T09:41:49;15.50;99.90
39493;DHT22;25176;51.060;3.720;2023-11-21T09:44:20;15.40;99.90
39493;DHT22;25176;51.060;3.720;2023-11-21T09:46:48;15.10;99.90
39493;DHT22;25176;51.060;3.720;2023-11-21T09:49:15;14.70;99.90
39493;DHT22;25176;51.060;3.720;2023-11-21T09:51:43;14.30;99.90
39493;DHT22;25176;51.060;3.720;2023-11-21T09:54:11;14.10;99.90
39493;DHT22;25176;51.060;3.720;2023-11-21T09:56:37;14.30;99.90
39493;DHT22;25176;51.060;3.720;2023-11-21T09:59:03;14.40;99.90
39493;DHT22;25176;51.060;3.720;2023-11-21T10:01:35;14.10;99.90
39493;DHT22;25176;51.060;3.720;2023-11-21T10:04:01;13.90;99.90
39493;DHT22;25176;51.060;3.720;2023-11-21T10:06:26;14.00;99.90
39493;DHT22;25176;51.060;3.720;2023-11-21T10:08:54;14.00;99.90
39493;DHT22;25176;51.060;3.720;2023-11-21T10:11:24;14.00;99.90
39493;DHT22;25176;51.060;3.720;2023-11-21T10:13:54;13.90;99.90
39493;DHT22;25176;51.060;3.720;2023-11-21T10:16:20;13.80;99.90
39493;DHT22;25176;51.060;3.720;2023-11-21T10:18:48;13.90;99.90
39493;DHT22;25176;51.060;3.720;2023-11-21T10:21:14;14.30;99.90
39493;DHT22;25176;51.060;3.720;2023-11-21T10:23:40;14.40;99.90
39493;DHT22;25176;51.060;3.720;2023-11-21T10:33:08;14.50;99.90
39493;DHT22;25176;51.060;3.720;2023-11-21T10:35:38;14.60;99.90
39493;DHT22;25176;51.060;3.720;2023-11-21T10:38:04;14.50;99.90
39493;DHT22;25176;51.060;3.720;2023-11-21T10:40:31;14.70;99.90
39493;DHT22;25176;51.060;3.720;2023-11-21T10:43:05;15.10;99.90
39493;DHT22;25176;51.060;3.720;2023-11-21T10:45:31;15.30;99.90
39493;DHT22;25176;51.060;3.720;2023-11-21T10:47:57;14.90;99.90
39493;DHT22;25176;51.060;3.720;2023-11-21T10:50:23;15.00;99.90
39493;DHT22;25176;51.060;3.720;2023-11-21T10:52:49;14.90;99.90
39493;DHT22;25176;51.060;3.720;2023-11-21T10:55:20;14.70;99.90
39493;DHT22;25176;51.060;3.720;2023-11-21T11:03:53;13.90;99.90
39493;DHT22;25176;51.060;3.720;2023-11-21T11:06:20;13.90;99.90
39493;DHT22;25176;51.060;3.720;2023-11-21T11:08:52;13.70;99.90
39493;DHT22;25176;51.060;3.720;2023-11-21T11:11:25;13.60;99.90
39493;DHT22;25176;51.060;3.720;2023-11-21T11:13:51;13.40;99.90
39493;DHT22;25176;51.060;3.720;2023-11-21T11:16:21;13.40;99.90
39493;DHT22;25176;51.060;3.720;2023-11-21T11:18:48;13.40;99.90
39493;DHT22;25176;51.060;3.720;2023-11-21T11:24:02;13.40;99.90
39493;DHT22;25176;51.060;3.720;2023-11-21T11:26:39;13.50;99.90
39493;DHT22;25176;51.060;3.720;2023-11-21T11:34:08;13.40;99.90
39493;DHT22;25176;51.060;3.720;2023-11-21T11:36:37;13.50;99.90
39493;DHT22;25176;51.060;3.720;2023-11-21T11:42:14;13.30;99.90
39493;DHT22;25176;51.060;3.720;2023-11-21T11:47:44;13.40;99.90
39493;DHT22;25176;51.060;3.720;2023-11-21T11:50:06;13.40;99.90
39493;DHT22;25176;51.060;3.720;2023-11-21T11:52:34;13.50;99.90
39493;DHT22;25176;51.060;3.720;2023-11-21T11:55:00;13.50;99.90
39493;DHT22;25176;51.060;3.720;2023-11-21T11:57:26;13.60;99.90
39493;DHT22;25176;51.060;3.720;2023-11-21T12:02:38;13.70;99.90
39493;DHT22;25176;51.060;3.720;2023-11-21T12:05:13;13.70;99.90
39493;DHT22;25176;51.060;3.720;2023-11-21T12:07:46;13.80;99.90
39493;DHT22;25176;51.060;3.720;2023-11-21T12:10:16;13.70;99.90
39493;DHT22;25176;51.060;3.720;2023-11-21T12:12:47;13.70;99.90
39493;DHT22;25176;51.060;3.720;2023-11-21T12:15:13;13.50;99.90
39493;DHT22;25176;51.060;3.720;2023-11-21T12:17:41;13.30;99.90
39493;DHT22;25176;51.060;3.720;2023-11-21T12:20:07;13.20;99.90
39493;DHT22;25176;51.060;3.720;2023-11-21T12:22:46;13.20;99.90
39493;DHT22;25176;51.060;3.720;2023-11-21T12:25:18;13.10;99.90
39493;DHT22;25176;51.060;3.720;2023-11-21T12:27:52;13.10;99.90
39493;DHT22;25176;51.060;3.720;2023-11-21T12:30:19;13.10;99.90
39493;DHT22;25176;51.060;3.720;2023-11-21T12:32:47;13.10;99.90
39493;DHT22;25176;51.060;3.720;2023-11-21T12:35:13;13.10;99.90
39493;DHT22;25176;51.060;3.720;2023-11-21T12:37:40;13.10;99.90
39493;DHT22;25176;51.060;3.720;2023-11-21T12:40:06;13.00;99.90
39493;DHT22;25176;51.060;3.720;2023-11-21T12:42:33;12.90;99.90
39493;DHT22;25176;51.060;3.720;2023-11-21T12:45:09;12.90;99.90
39493;DHT22;25176;51.060;3.720;2023-11-21T12:47:44;12.80;99.90
39493;DHT22;25176;51.060;3.720;2023-11-21T12:50:14;12.80;99.90
39493;DHT22;25176;51.060;3.720;2023-11-21T12:52:43;12.80;99.90
39493;DHT22;25176;51.060;3.720;2023-11-21T12:55:18;12.70;99.90
39493;DHT22;25176;51.060;3.720;2023-11-21T12:57:45;12.80;99.90
39493;DHT22;25176;51.060;3.720;2023-11-21T13:00:11;12.80;99.90
39493;DHT22;25176;51.060;3.720;2023-11-21T13:02:42;12.70;99.90
39493;DHT22;25176;51.060;3.720;2023-11-21T13:05:09;12.70;99.90
39493;DHT22;25176;51.060;3.720;2023-11-21T13:07:47;12.70;99.90
39493;DHT22;25176;51.060;3.720;2023-11-21T13:10:14;12.70;99.90
39493;DHT22;25176;51.060;3.720;2023-11-21T13:12:43;12.70;99.90
39493;DHT22;25176;51.060;3.720;2023-11-21T13:15:15;12.70;99.90
39493;DHT22;25176;51.060;3.720;2023-11-21T13:17:42;12.80;99.90
39493;DHT22;25176;51.060;3.720;2023-11-21T13:20:10;12.80;99.90
39493;DHT22;25176;51.060;3.720;2023-11-21T13:22:47;12.80;99.90
39493;DHT22;25176;51.060;3.720;2023-11-21T13:25:15;12.80;99.90
39493;DHT22;25176;51.060;3.720;2023-11-21T13:27:45;12.80;99.90
39493;DHT22;25176;51.060;3.720;2023-11-21T13:30:14;12.80;99.90
39493;DHT22;25176;51.060;3.720;2023-11-21T13:32:43;12.80;99.90
39493;DHT22;25176;51.060;3.720;2023-11-21T13:35:11;12.80;99.90
39493;DHT22;25176;51.060;3.720;2023-11-21T13:37:52;12.80;99.90
39493;DHT22;25176;51.060;3.720;2023-11-21T13:40:21;12.80;99.90
39493;DHT22;25176;51.060;3.720;2023-11-21T13:42:51;12.80;99.90
39493;DHT22;25176;51.060;3.720;2023-11-21T13:45:19;12.70;99.90
39493;DHT22;25176;51.060;3.720;2023-11-21T13:47:46;12.80;99.90
39493;DHT22;25176;51.060;3.720;2023-11-21T13:50:11;12.70;99.90
39493;DHT22;25176;51.060;3.720;2023-11-21T13:52:42;12.70;99.90
39493;DHT22;25176;51.060;3.720;2023-11-21T13:55:10;12.80;99.90
39493;DHT22;25176;51.060;3.720;2023-11-21T13:57:40;12.80;99.90
39493;DHT22;25176;51.060;3.720;2023-11-21T14:00:08;12.80;99.90
39493;DHT22;25176;51.060;3.720;2023-11-21T14:02:48;12.80;99.90
39493;DHT22;25176;51.060;3.720;2023-11-21T14:05:14;12.70;99.90
39493;DHT22;25176;51.060;3.720;2023-11-21T14:07:44;12.80;99.90
39493;DHT22;25176;51.060;3.720;2023-11-21T14:10:13;12.80;99.90
39493;DHT22;25176;51.060;3.720;2023-11-21T14:12:39;12.90;99.90
39493;DHT22;25176;51.060;3.720;2023-11-21T14:15:08;12.90;99.90
39493;DHT22;25176;51.060;3.720;2023-11-21T14:17:35;12.80;99.90
39493;DHT22;25176;51.060;3.720;2023-11-21T14:20:03;12.90;99.90
39493;DHT22;25176;51.060;3.720;2023-11-21T14:22:30;12.80;99.90
39493;DHT22;25176;51.060;3.720;2023-11-21T14:24:56;12.80;99.90
39493;DHT22;25176;51.060;3.720;2023-11-21T14:27:25;12.80;99.90
39493;DHT22;25176;51.060;3.720;2023-11-21T14:29:57;12.80;99.90
39493;DHT22;25176;51.060;3.720;2023-11-21T14:32:24;12.80;99.90
39493;DHT22;25176;51.060;3.720;2023-11-21T14:34:51;12.80;99.90
39493;DHT22;25176;51.060;3.720;2023-11-21T14:37:17;12.80;99.90
39493;DHT22;25176;51.060;3.720;2023-11-21T14:39:42;12.70;99.90
39493;DHT22;25176;51.060;3.720;2023-11-21T14:42:15;12.60;99.90
39493;DHT22;25176;51.060;3.720;2023-11-21T14:44:41;12.70;99.90
39493;DHT22;25176;51.060;3.720;2023-11-21T14:47:08;12.80;99.90
39493;DHT22;25176;51.060;3.720;2023-11-21T14:49:41;12.70;99.90
39493;DHT22;25176;51.060;3.720;2023-11-21T14:52:19;12.70;99.90
39493;DHT22;25176;51.060;3.720;2023-11-21T14:55:06;12.70;99.90
39493;DHT22;25176;51.060;3.720;2023-11-21T14:57:50;12.60;99.90
39493;DHT22;25176;51.060;3.720;2023-11-21T15:00:17;12.80;99.90
39493;DHT22;25176;51.060;3.720;2023-11-21T15:03:01;12.80;99.90
39493;DHT22;25176;51.060;3.720;2023-11-21T15:05:27;12.80;99.90
39493;DHT22;25176;51.060;3.720;2023-11-21T15:07:53;12.70;99.90
39493;DHT22;25176;51.060;3.720;2023-11-21T15:10:22;12.70;99.90
39493;DHT22;25176;51.060;3.720;2023-11-21T15:12:54;12.60;99.90
39493;DHT22;25176;51.060;3.720;2023-11-21T15:15:20;12.60;99.90
39493;DHT22;25176;51.060;3.720;2023-11-21T15:17:46;12.40;99.90
39493;DHT22;25176;51.060;3.720;2023-11-21T15:20:15;12.40;99.90
39493;DHT22;25176;51.060;3.720;2023-11-21T15:22:44;12.50;99.90
39493;DHT22;25176;51.060;3.720;2023-11-21T15:25:10;12.50;99.90
39493;DHT22;25176;51.060;3.720;2023-11-21T15:27:36;12.50;99.90
39493;DHT22;25176;51.060;3.720;2023-11-21T15:30:02;12.50;99.90
39493;DHT22;25176;51.060;3.720;2023-11-21T15:32:28;12.60;99.90
39493;DHT22;25176;51.060;3.720;2023-11-21T15:34:54;12.60;99.90
39493;DHT22;25176;51.060;3.720;2023-11-21T15:37:21;12.60;99.90
39493;DHT22;25176;51.060;3.720;2023-11-21T15:39:47;12.50;99.90
39493;DHT22;25176;51.060;3.720;2023-11-21T15:42:13;12.50;99.90
39493;DHT22;25176;51.060;3.720;2023-11-21T15:44:38;12.30;99.90
39493;DHT22;25176;51.060;3.720;2023-11-21T15:47:05;12.20;99.90
39493;DHT22;25176;51.060;3.720;2023-11-21T15:49:33;12.20;99.90
39493;DHT22;25176;51.060;3.720;2023-11-21T15:52:05;12.40;99.90
39493;DHT22;25176;51.060;3.720;2023-11-21T15:54:31;12.40;99.90
39493;DHT22;25176;51.060;3.720;2023-11-21T15:56:59;12.40;99.90
39493;DHT22;25176;51.060;3.720;2023-11-21T15:59:25;12.30;99.90